Time;durP1;ratioP1;P1;durP2;ratioP2;P2;SDS_P1;SDS_P2;PMS_P1;PMS_P2;Temp;Humidity;BMP_temperature;BMP_pressure;BME280_temperature;BME280_humidity;BME280_pressure;Samples;Min_cycle;Max_cycle;Signal;HPM_P1;HPM_P2
2022/12/06 00:01:51;;;;;;;35.65;23.47;;;;;;;1.91;82.19;100854.53;3511103;79;20912;-73
2022/12/06 00:06:53;;;;;;;39.45;26.68;;;;;;;1.94;82.24;100853.84;3542419;78;21809;-72
2022/12/06 00:11:42;;;;;;;34.50;24.20;;;;;;;1.95;82.26;100847.89;3474565;79;22511;-72
2022/12/06 00:16:35;;;;;;;40.03;24.47;;;;;;;1.98;82.20;100845.50;3525151;79;20990;-72
2022/12/06 00:21:31;;;;;;;34.95;23.15;;;;;;;1.97;82.37;100832.18;3608717;78;21142;-72
2022/12/06 00:26:23;;;;;;;39.30;25.52;;;;;;;1.99;82.41;100835.73;3529857;79;21414;-72
2022/12/06 00:31:17;;;;;;;38.48;23.62;;;;;;;1.98;82.63;100825.86;3481483;78;20951;-72
2022/12/06 00:36:19;;;;;;;44.10;27.80;;;;;;;1.96;82.67;100827.46;3491527;79;21468;-72
2022/12/06 00:41:14;;;;;;;45.25;28.55;;;;;;;1.95;82.74;100829.94;3453876;79;21448;-72
2022/12/06 00:46:08;;;;;;;45.33;28.38;;;;;;;1.90;82.94;100817.77;3538014;79;21911;-72
2022/12/06 00:50:59;;;;;;;43.33;27.10;;;;;;;1.90;83.13;100825.45;3477714;79;21840;-72
2022/12/06 00:55:50;;;;;;;49.38;27.93;;;;;;;1.86;83.21;100817.13;3559540;79;21056;-72
2022/12/06 01:00:42;;;;;;;45.58;28.87;;;;;;;1.86;83.45;100817.13;3531590;79;21017;-72
2022/12/06 01:05:39;;;;;;;42.78;27.50;;;;;;;1.86;83.50;100812.00;3520631;79;20923;-72
2022/12/06 01:10:30;;;;;;;40.52;25.80;;;;;;;1.87;83.63;100802.20;3491389;79;21097;-72
2022/12/06 01:15:21;;;;;;;40.73;26.80;;;;;;;1.85;83.67;100806.37;3482882;80;20998;-72
2022/12/06 01:20:12;;;;;;;49.45;29.67;;;;;;;1.85;84.05;100796.13;3561809;79;20954;-72
2022/12/06 01:25:03;;;;;;;42.30;27.35;;;;;;;1.85;84.05;100796.13;3483273;80;21658;-72
2022/12/06 01:29:54;;;;;;;45.70;29.12;;;;;;;1.87;84.04;100786.83;3487585;79;21053;-72
2022/12/06 01:34:45;;;;;;;43.87;27.02;;;;;;;1.87;84.12;100780.41;3446917;79;20907;-72
2022/12/06 01:39:37;;;;;;;47.10;28.85;;;;;;;1.87;84.14;100778.26;3461616;79;21626;-71
2022/12/06 01:44:43;;;;;;;45.52;27.50;;;;;;;1.87;84.31;100773.13;3500575;80;21053;-72
2022/12/06 01:49:35;;;;;;;47.05;27.40;;;;;;;1.88;84.41;100780.91;3454005;81;20967;-72
2022/12/06 01:54:26;;;;;;;43.70;25.65;;;;;;;1.86;84.39;100769.69;3415169;83;21022;-72
2022/12/06 01:59:19;;;;;;;45.67;28.90;;;;;;;1.84;84.34;100758.86;3381661;81;20987;-72
2022/12/06 02:04:10;;;;;;;42.45;28.75;;;;;;;1.83;84.61;100749.02;3433911;81;21106;-72
2022/12/06 02:09:06;;;;;;;49.77;29.98;;;;;;;1.86;84.65;100742.77;3431277;81;21026;-72
2022/12/06 02:13:58;;;;;;;47.43;28.95;;;;;;;1.87;84.67;100738.11;3437308;83;20952;-72
2022/12/06 02:18:54;;;;;;;45.43;29.63;;;;;;;1.89;84.75;100739.06;3441327;81;21503;-72
2022/12/06 02:24:29;;;;;;;43.10;28.03;;;;;;;1.86;84.65;100732.52;3456881;79;21282;-72
2022/12/06 02:29:31;;;;;;;49.98;29.85;;;;;;;1.87;84.79;100730.41;3525286;79;21502;-72
2022/12/06 02:34:48;;;;;;;47.85;27.22;;;;;;;1.87;84.90;100725.28;3477487;79;20978;-72
2022/12/06 02:39:48;;;;;;;43.35;27.07;;;;;;;1.86;84.90;100723.55;3500824;79;21045;-72
2022/12/06 02:44:44;;;;;;;46.60;28.02;;;;;;;1.86;84.90;100717.13;3524638;79;21452;-72
2022/12/06 02:49:43;;;;;;;42.10;28.05;;;;;;;1.85;85.02;100706.38;3510854;79;20903;-72
2022/12/06 02:54:32;;;;;;;47.30;28.25;;;;;;;1.84;85.06;100705.92;3481841;81;21017;-72
2022/12/06 02:59:23;;;;;;;45.92;28.57;;;;;;;1.85;85.12;100698.69;3447918;79;20954;-72
2022/12/06 03:04:45;;;;;;;45.15;29.05;;;;;;;1.84;85.16;100694.38;3489448;81;21678;-72
2022/12/06 03:09:45;;;;;;;32.40;22.17;;;;;;;1.84;85.21;100694.38;3526586;80;21491;-72
2022/12/06 03:15:06;;;;;;;41.68;26.97;;;;;;;1.82;85.13;100686.11;3474483;79;21050;-72
2022/12/06 03:20:02;;;;;;;41.05;27.07;;;;;;;1.79;85.25;100685.57;3476586;81;21012;-72
2022/12/06 03:24:54;;;;;;;44.42;29.10;;;;;;;1.76;85.35;100677.71;3499769;79;20966;-72
2022/12/06 03:29:53;;;;;;;39.45;26.33;;;;;;;1.73;85.37;100671.13;3528591;79;21429;-72
2022/12/06 03:34:49;;;;;;;35.33;24.00;;;;;;;1.74;85.50;100669.06;3518142;79;21350;-72
2022/12/06 03:40:02;;;;;;;46.83;27.13;;;;;;;1.72;85.45;100665.55;3499184;79;41174;-72
2022/12/06 03:44:53;;;;;;;43.87;26.85;;;;;;;1.71;85.63;100663.77;3513843;79;21133;-72
2022/12/06 03:49:56;;;;;;;39.15;24.15;;;;;;;1.73;85.74;100672.42;3501787;79;20978;-72
2022/12/06 03:54:47;;;;;;;39.03;26.27;;;;;;;1.72;85.74;100673.23;3523774;79;20958;-72
2022/12/06 03:59:38;;;;;;;39.15;26.12;;;;;;;1.67;85.74;100661.86;3503079;79;20936;-71
2022/12/06 04:04:29;;;;;;;38.65;24.60;;;;;;;1.69;85.72;100655.13;3531787;79;20954;-72
2022/12/06 04:14:38;;;;;;;41.92;25.60;;;;;;;1.69;85.91;100657.28;3489900;79;21014;-72
2022/12/06 04:19:22;;;;;;;44.30;28.50;;;;;;;1.73;85.95;100651.03;3483036;79;21608;-72
2022/12/06 04:24:13;;;;;;;36.42;24.82;;;;;;;1.74;85.91;100647.28;3433650;79;21732;-72
2022/12/06 04:39:24;;;;;;;32.58;21.80;;;;;;;1.71;86.06;100630.45;3493422;79;20981;-73
2022/12/06 04:44:15;;;;;;;34.00;22.65;;;;;;;1.71;86.09;100626.60;3520679;79;20941;-72
2022/12/06 04:49:06;;;;;;;33.55;22.58;;;;;;;1.69;86.15;100632.05;3473515;79;21824;-72
2022/12/06 04:53:57;;;;;;;41.18;24.23;;;;;;;1.67;86.18;100628.54;3484765;79;22267;-72
2022/12/06 04:58:48;;;;;;;38.92;23.42;;;;;;;1.65;86.21;100625.02;3508747;81;21110;-72
2022/12/06 05:03:39;;;;;;;35.38;24.25;;;;;;;1.65;86.18;100621.18;3481062;79;20939;-72
2022/12/06 05:08:30;;;;;;;34.38;23.02;;;;;;;1.64;86.08;100613.87;3499642;81;20990;-72
2022/12/06 05:13:22;;;;;;;30.92;23.05;;;;;;;1.64;86.08;100613.87;3477665;81;21559;-72
2022/12/06 05:18:13;;;;;;;32.90;22.77;;;;;;;1.65;86.26;100598.11;3505074;79;21196;-72
2022/12/06 05:23:04;;;;;;;30.70;21.17;;;;;;;1.66;86.40;100593.45;3523934;79;20895;-72
2022/12/06 05:27:55;;;;;;;34.20;23.02;;;;;;;1.65;86.31;100586.58;3528146;79;21240;-72
2022/12/06 05:32:46;;;;;;;32.78;22.02;;;;;;;1.64;86.46;100580.95;3532463;79;21050;-72
2022/12/06 05:37:36;;;;;;;28.50;18.42;;;;;;;1.66;86.46;100570.00;3494078;79;21468;-72
2022/12/06 05:42:27;;;;;;;31.82;21.65;;;;;;;1.66;86.51;100572.94;3464242;79;20958;-72
2022/12/06 05:47:18;;;;;;;31.90;21.75;;;;;;;1.66;86.54;100574.22;3471836;79;20971;-72
2022/12/06 05:52:10;;;;;;;35.30;23.12;;;;;;;1.68;86.63;100573.89;3537332;79;20905;-72
2022/12/06 05:57:01;;;;;;;32.75;21.93;;;;;;;1.69;86.48;100564.13;3501915;79;21527;-72
2022/12/06 06:01:52;;;;;;;33.23;21.85;;;;;;;1.68;86.52;100561.08;3484892;79;20993;-73
2022/12/06 06:06:43;;;;;;;30.80;21.33;;;;;;;1.69;86.59;100561.57;3467060;79;21029;-72
2022/12/06 06:11:33;;;;;;;30.32;20.80;;;;;;;1.68;86.57;100564.55;3503967;79;22199;-72
2022/12/06 06:16:24;;;;;;;33.38;21.77;;;;;;;1.69;86.58;100563.72;3433135;79;21015;-72
2022/12/06 06:21:15;;;;;;;27.75;19.37;;;;;;;1.71;86.59;100566.37;3467082;79;21701;-71
2022/12/06 06:26:11;;;;;;;33.42;24.07;;;;;;;1.71;86.66;100550.98;3506699;79;20982;-72
2022/12/06 06:31:06;;;;;;;35.33;24.32;;;;;;;1.71;86.67;100558.68;3499423;79;21508;-72
2022/12/06 06:35:56;;;;;;;30.72;21.62;;;;;;;1.73;86.71;100549.37;3481561;79;21053;-72
2022/12/06 06:40:47;;;;;;;34.78;24.47;;;;;;;1.75;86.65;100545.61;3528459;81;20980;-72
2022/12/06 06:45:38;;;;;;;35.60;22.60;;;;;;;1.78;86.68;100546.64;3483809;80;21027;-72
2022/12/06 06:50:29;;;;;;;37.00;24.10;;;;;;;1.78;86.69;100544.08;3514556;79;21018;-72
2022/12/06 06:55:20;;;;;;;33.58;23.40;;;;;;;1.80;86.64;100548.87;3503499;79;20998;-72
2022/12/06 07:00:13;;;;;;;37.05;24.15;;;;;;;1.78;86.57;100549.63;3494538;79;21571;-72
2022/12/06 07:05:05;;;;;;;33.85;23.02;;;;;;;1.79;86.71;100551.36;3451964;79;21012;-72
2022/12/06 07:09:56;;;;;;;37.03;23.07;;;;;;;1.80;86.75;100541.19;3494761;79;20966;-72
2022/12/06 07:14:47;;;;;;;35.65;23.40;;;;;;;1.81;86.72;100540.39;3480629;79;20888;-72
2022/12/06 07:19:38;;;;;;;32.15;22.62;;;;;;;1.82;86.75;100543.41;3479656;79;21767;-72
2022/12/06 07:24:29;;;;;;;35.70;23.92;;;;;;;1.81;86.67;100525.02;3480832;79;20978;-72
2022/12/06 07:29:20;;;;;;;38.95;25.00;;;;;;;1.87;86.81;100534.27;3450336;79;20903;-72
2022/12/06 07:34:11;;;;;;;30.55;21.57;;;;;;;1.87;86.74;100522.73;3450747;81;20918;-72
2022/12/06 07:39:02;;;;;;;40.55;25.17;;;;;;;1.89;86.69;100528.81;3483997;79;21191;-72
2022/12/06 07:49:06;;;;;;;39.95;25.75;;;;;;;1.85;86.65;100532.04;3483631;81;20989;-72
2022/12/06 07:53:58;;;;;;;39.42;26.30;;;;;;;1.88;86.85;100518.51;3497210;81;21008;-72
2022/12/06 07:58:49;;;;;;;42.95;27.75;;;;;;;1.92;86.89;100523.38;3485617;79;22032;-72
2022/12/06 08:03:40;;;;;;;45.08;27.05;;;;;;;1.96;86.85;100522.72;3499309;79;21037;-71
2022/12/06 08:08:31;;;;;;;44.40;28.67;;;;;;;1.93;86.80;100508.45;3498413;79;22001;-72
2022/12/06 08:13:22;;;;;;;44.42;29.20;;;;;;;1.95;86.85;100506.46;3520771;81;20998;-72
2022/12/06 08:18:14;;;;;;;45.35;27.70;;;;;;;1.99;86.82;100506.20;3529505;80;20994;-72
2022/12/06 08:23:05;;;;;;;51.28;30.02;;;;;;;2.03;86.78;100517.08;3498920;80;20986;-72
2022/12/06 08:27:56;;;;;;;48.83;31.50;;;;;;;2.06;86.74;100510.83;3471866;81;21007;-72
2022/12/06 08:32:47;;;;;;;51.80;28.98;;;;;;;2.07;86.67;100508.72;3491061;81;22043;-72
2022/12/06 08:37:38;;;;;;;51.33;28.98;;;;;;;2.08;86.80;100502.38;3499899;80;20909;-73
2022/12/06 08:42:29;;;;;;;51.60;31.70;;;;;;;2.13;86.81;100505.56;3490004;79;21010;-73
2022/12/06 08:47:20;;;;;;;53.02;31.07;;;;;;;2.14;86.75;100498.36;3488397;79;20990;-73
2022/12/06 08:52:11;;;;;;;57.55;31.33;;;;;;;2.15;86.68;100501.00;3529371;79;21480;-71
2022/12/06 08:57:03;;;;;;;55.65;31.02;;;;;;;2.18;86.76;100485.77;3497296;79;21152;-72
2022/12/06 09:01:54;;;;;;;50.65;31.35;;;;;;;2.22;86.63;100478.67;3476376;81;20939;-73
2022/12/06 09:06:45;;;;;;;55.63;31.60;;;;;;;2.26;86.60;100474.56;3528857;80;20911;-73
2022/12/06 09:11:38;;;;;;;52.90;32.20;;;;;;;2.31;86.79;100468.34;3472780;80;20919;-73
2022/12/06 09:16:29;;;;;;;55.17;30.95;;;;;;;2.35;86.77;100469.85;3494360;78;20947;-72
2022/12/06 09:21:23;;;;;;;53.28;30.75;;;;;;;2.41;86.71;100455.14;3510737;78;21161;-73
2022/12/06 09:26:15;;;;;;;49.50;29.30;;;;;;;2.45;86.57;100453.17;3484822;80;20931;-72
2022/12/06 09:31:08;;;;;;;51.37;30.80;;;;;;;2.47;86.66;100451.17;3565731;78;20963;-73
2022/12/06 09:36:17;;;;;;;54.65;31.25;;;;;;;2.52;86.61;100436.38;3537591;78;20954;-72
2022/12/06 09:41:22;;;;;;;50.70;31.70;;;;;;;2.58;86.65;100431.13;3550165;79;21014;-72
2022/12/06 09:46:22;;;;;;;54.48;32.75;;;;;;;2.67;86.68;100421.25;3521701;78;20893;-73
2022/12/06 09:51:46;;;;;;;52.83;30.40;;;;;;;2.74;86.48;100433.09;3520682;78;20995;-72
2022/12/06 09:56:54;;;;;;;54.67;33.13;;;;;;;2.70;86.54;100435.03;3433676;80;20966;-73
2022/12/06 10:02:32;;;;;;;55.98;29.52;;;;;;;2.66;86.84;100420.80;3403808;82;21331;-73
2022/12/06 10:08:05;;;;;;;52.00;31.65;;;;;;;2.66;86.81;100406.68;3460980;81;21065;-73
2022/12/06 10:13:12;;;;;;;52.80;32.05;;;;;;;2.65;86.84;100407.48;3476546;81;21458;-73
2022/12/06 10:18:19;;;;;;;55.20;30.82;;;;;;;2.61;86.91;100397.90;3370278;82;21042;-72
2022/12/06 10:23:32;;;;;;;54.98;30.05;;;;;;;2.54;86.94;100389.84;3400057;82;20993;-73
2022/12/06 10:28:41;;;;;;;57.13;30.95;;;;;;;2.55;87.14;100375.80;3459932;81;20959;-73
2022/12/06 10:33:59;;;;;;;58.63;32.20;;;;;;;2.59;87.21;100363.55;3533587;80;22253;-73
2022/12/06 10:38:55;;;;;;;60.63;32.70;;;;;;;2.64;87.18;100355.65;3534102;80;20956;-73
2022/12/06 10:44:13;;;;;;;59.50;31.90;;;;;;;2.67;87.14;100358.36;3495819;79;20990;-72
2022/12/06 10:49:14;;;;;;;;;;;;;;;2.69;87.16;100354.99;3553147;79;20931;-73
2022/12/06 10:54:19;;;;;;;60.08;33.95;;;;;;;2.69;87.21;100348.58;3584104;79;20626;-73
2022/12/06 10:59:45;;;;;;;106.35;51.18;;;;;;;2.68;87.18;100334.84;3405354;83;21042;-73
2022/12/06 11:04:38;;;;;;;69.25;33.53;;;;;;;2.70;87.25;100327.20;3346333;83;21209;-74
2022/12/06 11:09:37;;;;;;;60.08;33.13;;;;;;;2.72;87.18;100325.58;3343581;83;21120;-73
2022/12/06 11:14:42;;;;;;;51.35;28.95;;;;;;;2.70;87.18;100322.08;3410692;83;21610;-73
2022/12/06 11:19:43;;;;;;;48.70;28.05;;;;;;;2.64;87.12;100318.43;3377752;83;21559;-73
2022/12/06 11:24:40;;;;;;;47.95;27.75;;;;;;;2.61;87.15;100319.99;3416158;83;21001;-72
2022/12/06 11:29:31;;;;;;;55.03;29.27;;;;;;;2.61;87.34;100315.76;3375534;83;21577;-72
2022/12/06 11:34:48;;;;;;;53.08;30.08;;;;;;;2.65;87.33;100299.66;3363728;79;21621;-73
2022/12/06 11:39:39;;;;;;;56.85;30.75;;;;;;;2.67;87.29;100296.75;3528213;79;21085;-73
2022/12/06 11:44:45;;;;;;;49.55;28.23;;;;;;;2.72;87.39;100286.69;3519590;79;20975;-73
2022/12/06 11:49:40;;;;;;;56.42;28.15;;;;;;;2.80;87.35;100285.71;3478650;81;21018;-71
2022/12/06 11:54:43;;;;;;;55.25;30.90;;;;;;;2.85;87.25;100282.93;3468821;81;21844;-71
2022/12/06 11:59:34;;;;;;;50.98;28.55;;;;;;;2.86;87.32;100272.73;3418705;81;20982;-72
2022/12/06 12:04:42;;;;;;;46.65;28.35;;;;;;;2.89;87.30;100280.95;3433866;81;21004;-72
2022/12/06 12:09:57;;;;;;;53.98;29.50;;;;;;;2.87;87.24;100272.31;3428813;81;21759;-72
2022/12/06 12:14:56;;;;;;;51.68;27.45;;;;;;;2.85;87.22;100276.52;3428868;83;20983;-72
2022/12/06 12:20:07;;;;;;;52.45;31.52;;;;;;;2.84;87.36;100259.34;3435520;83;21374;-72
2022/12/06 12:25:02;;;;;;;51.98;30.57;;;;;;;2.83;87.42;100252.47;3390453;83;20953;-72
2022/12/06 12:30:35;;;;;;;54.10;29.95;;;;;;;2.82;87.52;100249.00;3397085;82;21000;-72
2022/12/06 12:35:27;;;;;;;55.28;30.35;;;;;;;2.78;87.50;100238.56;3452595;81;20975;-71
2022/12/06 12:40:28;;;;;;;54.93;29.90;;;;;;;2.75;87.56;100232.02;3455030;80;20923;-72
2022/12/06 12:45:21;;;;;;;56.83;30.05;;;;;;;2.75;87.60;100228.16;3519238;80;21468;-71
2022/12/06 12:50:18;;;;;;;56.35;30.88;;;;;;;2.72;87.66;100228.02;3506165;78;21461;-72
2022/12/06 12:55:23;;;;;;;57.43;30.80;;;;;;;2.70;87.65;100225.80;3553119;78;20970;-73
2022/12/06 13:00:41;;;;;;;53.58;30.08;;;;;;;2.69;87.73;100230.49;3497064;80;20970;-73
2022/12/06 13:05:36;;;;;;;53.58;31.02;;;;;;;2.69;87.75;100219.81;3285061;85;21529;-72
2022/12/06 13:10:37;;;;;;;52.48;31.00;;;;;;;2.70;87.70;100209.13;3251111;86;21112;-73
2022/12/06 13:15:46;;;;;;;52.08;29.75;;;;;;;2.67;87.68;100206.91;3198345;87;21058;-73
2022/12/06 13:20:37;;;;;;;57.67;29.87;;;;;;;2.69;87.77;100213.80;3256494;87;21046;-73
2022/12/06 13:25:29;;;;;;;53.13;29.92;;;;;;;2.69;87.75;100204.41;3229296;85;21011;-73
2022/12/06 13:30:23;;;;;;;53.65;31.02;;;;;;;2.67;87.76;100197.92;3217815;87;21078;-72
2022/12/06 13:35:39;;;;;;;53.50;31.77;;;;;;;2.70;87.82;100196.29;3122762;89;21188;-73
2022/12/06 13:40:39;;;;;;;55.45;33.10;;;;;;;2.70;87.87;100192.44;3148582;88;21524;-73
2022/12/06 13:45:44;;;;;;;61.37;31.05;;;;;;;2.71;87.90;100190.35;3203762;88;21046;-72
2022/12/06 13:50:40;;;;;;;52.20;30.45;;;;;;;2.71;87.90;100186.50;3228437;88;20977;-73
2022/12/06 13:55:40;;;;;;;53.33;32.67;;;;;;;2.70;87.90;100186.92;3190687;86;22363;-72
2022/12/06 14:00:42;;;;;;;56.08;32.95;;;;;;;2.69;87.84;100187.72;3202040;88;22027;-72
2022/12/06 14:06:10;;;;;;;57.23;31.68;;;;;;;2.69;87.90;100182.59;3217695;87;21622;-72
2022/12/06 14:11:13;;;;;;;52.50;34.45;;;;;;;2.67;87.88;100177.38;3214912;86;20976;-72
2022/12/06 14:16:07;;;;;;;53.65;33.28;;;;;;;2.64;87.90;100169.55;3209244;87;21052;-72
2022/12/06 14:21:01;;;;;;;62.45;36.48;;;;;;;2.62;87.89;100166.47;3193029;86;21034;-73
2022/12/06 14:26:12;;;;;;;56.55;34.30;;;;;;;2.60;87.98;100159.98;3180508;88;21138;-72
2022/12/06 14:31:06;;;;;;;55.55;35.55;;;;;;;2.60;88.02;100148.44;3176225;88;21020;-73
2022/12/06 14:35:58;;;;;;;50.33;29.82;;;;;;;2.60;87.96;100157.42;3184580;88;20971;-73
2022/12/06 14:46:11;;;;;;;49.33;30.68;;;;;;;2.56;87.98;100151.70;3170309;88;20972;-73
2022/12/06 14:51:04;;;;;;;49.63;30.77;;;;;;;2.55;88.03;100149.94;3201360;87;21069;-73
2022/12/06 14:56:08;;;;;;;48.02;30.80;;;;;;;2.56;88.07;100143.11;3228634;87;21027;-73
2022/12/06 15:01:04;;;;;;;46.45;30.80;;;;;;;2.54;88.07;100143.45;3197894;87;21072;-73
2022/12/06 15:06:18;;;;;;;45.20;29.15;;;;;;;2.54;88.07;100143.08;3161625;89;21046;-73
2022/12/06 15:12:53;;;;;;;45.43;28.60;;;;;;;2.54;88.04;100148.59;3215960;87;21057;-73
2022/12/06 15:16:14;;;;;;;45.55;28.10;;;;;;;2.52;88.15;100143.39;3171003;87;21048;-74
2022/12/06 15:21:15;;;;;;;46.35;29.92;;;;;;;2.52;88.11;100139.95;3227892;85;21069;-74
2022/12/06 15:26:11;;;;;;;47.38;29.32;;;;;;;2.49;88.11;100130.46;3208896;87;20992;-73
2022/12/06 15:31:05;;;;;;;45.35;29.32;;;;;;;2.50;88.12;100134.77;3233342;87;20993;-73
2022/12/06 15:35:57;;;;;;;42.93;27.07;;;;;;;2.49;88.14;100120.20;3225820;86;20989;-73
2022/12/06 15:40:51;;;;;;;51.08;31.17;;;;;;;2.48;88.16;100121.00;3231417;86;21083;-72
2022/12/06 15:45:42;;;;;;;46.37;29.10;;;;;;;2.47;88.14;100116.70;3206991;87;20999;-72
2022/12/06 15:50:34;;;;;;;49.55;29.85;;;;;;;2.46;88.23;100111.09;3244480;86;21048;-73
2022/12/06 15:55:27;;;;;;;45.63;29.95;;;;;;;2.45;88.25;100100.34;3224042;87;20973;-72
2022/12/06 16:00:18;;;;;;;49.10;31.33;;;;;;;2.45;88.24;100092.64;3223986;87;21013;-72
2022/12/06 16:05:16;;;;;;;42.43;29.23;;;;;;;2.44;88.22;100088.34;3229656;85;21881;-72
2022/12/06 16:10:07;;;;;;;44.05;29.12;;;;;;;2.43;88.25;100087.86;3272603;84;20972;-71
2022/12/06 16:14:58;;;;;;;45.98;32.15;;;;;;;2.41;88.27;100089.50;3194671;87;20993;-72
2022/12/06 16:24:59;;;;;;;44.13;28.50;;;;;;;2.40;88.31;100087.77;3210721;86;22434;-72
2022/12/06 16:29:51;;;;;;;40.28;28.50;;;;;;;2.40;88.34;100083.91;3196638;88;22770;-72
2022/12/06 16:34:42;;;;;;;40.15;28.02;;;;;;;2.37;88.35;100082.08;3218656;88;21557;-72
2022/12/06 16:39:34;;;;;;;42.75;29.07;;;;;;;2.38;88.38;100070.13;3172167;87;21355;-72
2022/12/06 16:44:25;;;;;;;40.92;27.25;;;;;;;2.37;88.30;100071.82;3221209;87;21072;-72
2022/12/06 16:49:27;;;;;;;41.55;26.95;;;;;;;2.36;88.37;100062.77;3217970;87;21008;-72
2022/12/06 16:54:19;;;;;;;43.70;28.90;;;;;;;2.38;88.44;100061.14;3196351;87;20982;-72
2022/12/06 16:59:14;;;;;;;42.40;30.10;;;;;;;2.38;88.38;100062.42;3194926;87;20987;-72
2022/12/06 17:04:09;;;;;;;42.75;27.00;;;;;;;2.40;88.45;100050.56;3187710;87;21105;-71
2022/12/06 17:09:00;;;;;;;40.83;27.48;;;;;;;2.40;88.37;100044.14;3183145;87;20974;-70
2022/12/06 17:13:51;;;;;;;40.43;26.57;;;;;;;2.38;88.28;100045.75;3185198;88;20943;-71
2022/12/06 17:18:42;;;;;;;39.78;25.70;;;;;;;2.37;88.29;100033.75;3208860;88;21776;-72
2022/12/06 17:23:34;;;;;;;39.15;26.60;;;;;;;2.38;88.37;100040.62;3189865;88;21486;-72
2022/12/06 17:28:26;;;;;;;38.13;26.73;;;;;;;2.37;88.45;100040.16;3155325;87;21002;-72
2022/12/06 17:33:17;;;;;;;41.33;28.42;;;;;;;2.38;88.44;100032.53;3170582;88;20960;-71
2022/12/06 17:38:10;;;;;;;38.23;27.10;;;;;;;2.40;88.45;100035.16;3155001;88;21026;-72
2022/12/06 17:43:02;;;;;;;43.52;28.73;;;;;;;2.41;88.47;100031.77;3175065;88;22109;-73
2022/12/06 17:47:54;;;;;;;44.53;28.47;;;;;;;2.42;88.46;100028.40;3177341;88;20998;-71
2022/12/06 17:52:45;;;;;;;43.10;28.60;;;;;;;2.42;88.58;100023.27;3176052;88;20927;-72
2022/12/06 17:57:36;;;;;;;41.45;28.98;;;;;;;2.41;88.51;100022.78;3220937;86;21002;-72
2022/12/06 18:02:27;;;;;;;49.73;32.38;;;;;;;2.44;88.56;100021.62;3173298;88;21035;-72
2022/12/06 18:07:18;;;;;;;41.37;28.73;;;;;;;2.43;88.48;100012.17;3208066;87;21102;-71
2022/12/06 18:12:12;;;;;;;44.18;28.67;;;;;;;2.44;88.67;100012.64;3170944;87;21491;-71
2022/12/06 18:17:03;;;;;;;42.93;29.42;;;;;;;2.46;88.66;100009.73;3192804;87;21065;-74
2022/12/06 18:21:54;;;;;;;45.15;28.92;;;;;;;2.48;88.69;100012.80;3197360;87;21080;-73
2022/12/06 18:26:46;;;;;;;47.23;30.95;;;;;;;2.50;88.65;100001.31;3217858;87;20966;-71
2022/12/06 18:31:37;;;;;;;48.98;32.53;;;;;;;2.50;88.69;99991.05;3196713;87;20983;-71
2022/12/06 18:36:30;;;;;;;45.60;30.30;;;;;;;2.52;88.64;99984.28;3199406;87;21676;-72
2022/12/06 18:41:21;;;;;;;44.13;30.95;;;;;;;2.51;88.59;99982.55;3178489;87;21046;-71
2022/12/06 18:46:16;;;;;;;48.28;31.87;;;;;;;2.53;88.67;99980.91;3198913;87;21045;-71
2022/12/06 18:51:10;;;;;;;45.65;30.75;;;;;;;2.54;88.65;99974.98;3169526;87;21014;-70
2022/12/06 18:56:08;;;;;;;47.60;29.67;;;;;;;2.54;88.65;99969.84;3206758;87;22501;-71
2022/12/06 19:00:59;;;;;;;;;;;;;;;2.54;88.70;99969.84;3193140;86;21072;-70
2022/12/06 19:05:50;;;;;;;49.18;32.67;;;;;;;2.53;88.67;99962.95;3155169;88;21711;-71
2022/12/06 19:10:41;;;;;;;46.80;30.90;;;;;;;2.52;88.72;99966.32;3200847;85;21036;-71
2022/12/06 19:15:32;;;;;;;46.55;30.55;;;;;;;2.53;88.75;99960.39;3195179;87;20984;-71
2022/12/06 19:20:23;;;;;;;48.00;31.60;;;;;;;2.53;88.79;99964.23;3129486;89;21739;-71
2022/12/06 19:25:16;;;;;;;42.85;29.98;;;;;;;2.55;88.75;99952.33;3212826;85;21549;-71
2022/12/06 19:30:09;;;;;;;43.02;28.57;;;;;;;2.54;88.73;99954.45;3248454;86;21060;-70
2022/12/06 19:35:03;;;;;;;41.20;28.52;;;;;;;2.53;88.71;99948.84;3222319;85;22193;-71
2022/12/06 19:39:56;;;;;;;48.63;30.65;;;;;;;2.54;88.95;99951.88;3201746;88;21011;-71
2022/12/06 19:44:49;;;;;;;45.60;29.05;;;;;;;2.54;88.96;99945.85;3224847;87;22058;-71
2022/12/06 19:49:40;;;;;;;44.80;30.25;;;;;;;2.55;89.01;99948.48;3127610;89;21037;-71
2022/12/06 19:54:34;;;;;;;45.43;30.48;;;;;;;2.57;89.01;99941.70;3206256;87;21013;-71
2022/12/06 19:59:33;;;;;;;50.55;31.97;;;;;;;2.59;89.02;99936.64;3179877;86;21151;-72
2022/12/06 20:04:31;;;;;;;48.95;32.03;;;;;;;2.59;88.87;99943.05;3235588;85;21007;-72
2022/12/06 20:09:26;;;;;;;46.53;29.30;;;;;;;2.58;88.96;99935.77;3203337;87;21131;-71
2022/12/06 20:14:17;;;;;;;46.42;30.43;;;;;;;2.57;88.98;99931.86;3201661;88;21013;-71
2022/12/06 20:19:14;;;;;;;49.65;33.13;;;;;;;2.58;89.29;99926.78;3127344;89;21036;-71
2022/12/06 20:24:06;;;;;;;49.90;32.83;;;;;;;2.63;89.37;99919.27;3226576;87;21009;-71
2022/12/06 20:28:59;;;;;;;58.98;37.85;;;;;;;2.64;89.12;99928.70;3167155;86;21007;-71
2022/12/06 20:33:56;;;;;;;62.80;40.95;;;;;;;2.64;89.34;99920.58;3212365;88;21867;-72
2022/12/06 20:38:47;;;;;;;65.00;39.00;;;;;;;2.66;89.23;99921.53;3199923;88;21012;-71
2022/12/06 20:43:39;;;;;;;71.02;40.88;;;;;;;2.65;89.28;99911.20;3192203;87;21792;-71
2022/12/06 20:48:30;;;;;;;50.92;32.75;;;;;;;2.65;89.19;99909.51;3194087;88;21017;-71
2022/12/06 20:53:21;;;;;;;62.08;38.88;;;;;;;2.66;89.17;99905.23;3123576;88;21019;-71
2022/12/06 20:58:12;;;;;;;53.45;34.00;;;;;;;2.59;88.85;99904.13;3161152;88;21706;-71
2022/12/06 21:03:03;;;;;;;48.33;31.95;;;;;;;2.57;89.08;99903.21;3242379;87;21289;-71
2022/12/06 21:07:54;;;;;;;41.02;24.90;;;;;;;2.55;88.99;99893.30;3180295;88;21060;-71
2022/12/06 21:12:45;;;;;;;40.95;26.35;;;;;;;2.54;88.87;99895.81;3164208;87;20997;-71
2022/12/06 21:17:36;;;;;;;37.45;25.08;;;;;;;2.51;88.87;99895.30;3115061;89;21069;-71
2022/12/06 21:22:27;;;;;;;37.90;25.45;;;;;;;2.47;88.64;99896.89;3178160;86;21070;-71
2022/12/06 21:27:18;;;;;;;42.98;27.60;;;;;;;2.45;88.70;99889.94;3133604;88;20997;-71
2022/12/06 21:32:09;;;;;;;42.03;26.50;;;;;;;2.45;88.83;99895.06;3157941;88;22114;-71
2022/12/06 21:37:00;;;;;;;31.25;22.07;;;;;;;2.46;88.90;99896.83;3164220;86;21056;-71
2022/12/06 21:41:52;;;;;;;33.92;22.90;;;;;;;2.46;88.93;99900.67;3197731;88;21391;-71
2022/12/06 21:46:43;;;;;;;28.10;21.33;;;;;;;2.42;88.62;99893.70;3184655;88;21934;-71
2022/12/06 21:51:34;;;;;;;27.63;20.67;;;;;;;2.36;88.64;99890.50;3178003;88;21035;-71
2022/12/06 21:56:29;;;;;;;29.45;21.65;;;;;;;2.34;88.39;99893.81;3179810;88;21640;-71
2022/12/06 22:01:26;;;;;;;26.60;19.52;;;;;;;2.28;88.45;99892.77;3159326;88;21542;-72
2022/12/06 22:06:18;;;;;;;34.05;21.33;;;;;;;2.25;88.38;99884.98;3118427;89;20983;-71
2022/12/06 22:11:12;;;;;;;29.98;22.48;;;;;;;2.20;88.15;99889.05;3174200;88;21141;-72
2022/12/06 22:16:07;;;;;;;29.72;21.17;;;;;;;2.18;88.40;99881.72;3158217;87;20993;-71
2022/12/06 22:21:03;;;;;;;30.88;22.90;;;;;;;2.12;87.96;99875.06;3175205;88;21032;-71
2022/12/06 22:25:55;;;;;;;31.15;20.75;;;;;;;2.09;88.14;99878.78;3174838;88;21061;-71
2022/12/06 22:30:46;;;;;;;29.90;21.62;;;;;;;2.00;87.80;99879.72;3156655;88;20967;-71
2022/12/06 22:35:37;;;;;;;30.12;22.42;;;;;;;1.94;87.88;99871.81;3094109;89;21005;-71
2022/12/06 22:40:28;;;;;;;30.12;23.27;;;;;;;1.92;88.04;99865.76;3175127;87;21724;-71
2022/12/06 22:45:19;;;;;;;34.85;24.57;;;;;;;1.90;88.04;99858.88;3195512;88;21042;-71
2022/12/06 22:50:11;;;;;;;38.02;25.00;;;;;;;1.89;87.96;99855.83;3199354;88;21000;-71
2022/12/06 22:55:04;;;;;;;38.98;26.33;;;;;;;1.85;87.84;99860.38;3154191;89;21002;-71
2022/12/06 22:59:55;;;;;;;38.05;27.05;;;;;;;1.79;87.66;99862.72;3116346;88;22073;-72
2022/12/06 23:04:45;;;;;;;33.10;25.00;;;;;;;1.78;87.83;99862.66;3163337;87;20985;-72
2022/12/06 23:09:37;;;;;;;35.15;25.40;;;;;;;1.76;88.19;99843.38;3153881;88;20998;-71
2022/12/06 23:14:29;;;;;;;33.90;23.73;;;;;;;1.76;88.19;99843.38;3203169;88;21996;-71